sensor_id;sensor_type;location;lat;lon;timestamp;temperature;humidity
29855;DHT22;16733;48.738;9.106;2023-03-29T00:00:12;5.70;99.90
29855;DHT22;16733;48.738;9.106;2023-03-29T00:02:42;5.60;99.90
29855;DHT22;16733;48.738;9.106;2023-03-29T00:05:13;5.60;99.90
29855;DHT22;16733;48.738;9.106;2023-03-29T00:07:40;5.70;99.90
29855;DHT22;16733;48.738;9.106;2023-03-29T00:10:07;5.70;99.90
29855;DHT22;16733;48.738;9.106;2023-03-29T00:12:35;5.80;99.90
29855;DHT22;16733;48.738;9.106;2023-03-29T00:15:01;5.80;99.90
29855;DHT22;16733;48.738;9.106;2023-03-29T00:17:27;5.80;99.90
29855;DHT22;16733;48.738;9.106;2023-03-29T00:19:53;5.80;99.90
29855;DHT22;16733;48.738;9.106;2023-03-29T00:22:18;5.80;99.90
29855;DHT22;16733;48.738;9.106;2023-03-29T00:24:44;5.80;99.90
29855;DHT22;16733;48.738;9.106;2023-03-29T00:27:12;5.80;99.90
29855;DHT22;16733;48.738;9.106;2023-03-29T00:29:38;5.80;99.90
29855;DHT22;16733;48.738;9.106;2023-03-29T00:32:03;5.80;99.90
29855;DHT22;16733;48.738;9.106;2023-03-29T00:34:29;5.80;99.90
29855;DHT22;16733;48.738;9.106;2023-03-29T00:37:01;5.80;99.90
29855;DHT22;16733;48.738;9.106;2023-03-29T00:39:26;5.80;99.90
29855;DHT22;16733;48.738;9.106;2023-03-29T00:41:52;5.80;99.90
29855;DHT22;16733;48.738;9.106;2023-03-29T00:47:47;5.80;99.90
29855;DHT22;16733;48.738;9.106;2023-03-29T00:55:35;5.70;99.90
29855;DHT22;16733;48.738;9.106;2023-03-29T00:58:04;5.70;99.90
29855;DHT22;16733;48.738;9.106;2023-03-29T01:00:34;5.70;99.90
29855;DHT22;16733;48.738;9.106;2023-03-29T01:03:05;5.70;99.90
29855;DHT22;16733;48.738;9.106;2023-03-29T01:05:47;5.70;99.90
29855;DHT22;16733;48.738;9.106;2023-03-29T01:08:22;5.70;99.90
29855;DHT22;16733;48.738;9.106;2023-03-29T01:10:59;5.70;99.90
29855;DHT22;16733;48.738;9.106;2023-03-29T01:14:05;5.70;99.90
29855;DHT22;16733;48.738;9.106;2023-03-29T01:16:35;5.70;99.90
29855;DHT22;16733;48.738;9.106;2023-03-29T01:19:05;5.70;99.90
29855;DHT22;16733;48.738;9.106;2023-03-29T01:21:51;5.70;99.90
29855;DHT22;16733;48.738;9.106;2023-03-29T01:24:36;5.70;99.90
29855;DHT22;16733;48.738;9.106;2023-03-29T01:30:01;5.70;99.90
29855;DHT22;16733;48.738;9.106;2023-03-29T01:32:32;5.70;99.90
29855;DHT22;16733;48.738;9.106;2023-03-29T01:35:26;5.70;99.90
29855;DHT22;16733;48.738;9.106;2023-03-29T01:38:05;5.70;99.90
29855;DHT22;16733;48.738;9.106;2023-03-29T01:40:32;5.70;99.90
29855;DHT22;16733;48.738;9.106;2023-03-29T01:43:23;5.70;99.90
29855;DHT22;16733;48.738;9.106;2023-03-29T01:48:38;5.70;99.90
29855;DHT22;16733;48.738;9.106;2023-03-29T01:51:59;5.70;99.90
29855;DHT22;16733;48.738;9.106;2023-03-29T01:54:06;5.70;99.90
29855;DHT22;16733;48.738;9.106;2023-03-29T01:56:36;5.70;99.90
29855;DHT22;16733;48.738;9.106;2023-03-29T01:59:06;5.70;99.90
29855;DHT22;16733;48.738;9.106;2023-03-29T02:01:39;5.70;99.90
29855;DHT22;16733;48.738;9.106;2023-03-29T02:04:09;5.70;99.90
29855;DHT22;16733;48.738;9.106;2023-03-29T02:06:38;5.70;99.90
29855;DHT22;16733;48.738;9.106;2023-03-29T02:09:05;5.70;99.90
29855;DHT22;16733;48.738;9.106;2023-03-29T02:11:32;5.70;99.90
29855;DHT22;16733;48.738;9.106;2023-03-29T02:13:59;5.70;99.90
29855;DHT22;16733;48.738;9.106;2023-03-29T02:16:25;5.70;99.90
29855;DHT22;16733;48.738;9.106;2023-03-29T02:18:52;5.70;99.90
29855;DHT22;16733;48.738;9.106;2023-03-29T02:24:06;5.60;99.90
29855;DHT22;16733;48.738;9.106;2023-03-29T02:26:33;5.60;99.90
29855;DHT22;16733;48.738;9.106;2023-03-29T02:28:58;5.50;99.90
29855;DHT22;16733;48.738;9.106;2023-03-29T02:31:32;5.50;99.90
29855;DHT22;16733;48.738;9.106;2023-03-29T02:34:14;5.50;99.90
29855;DHT22;16733;48.738;9.106;2023-03-29T02:36:50;5.40;99.90
29855;DHT22;16733;48.738;9.106;2023-03-29T02:39:18;5.40;99.90
29855;DHT22;16733;48.738;9.106;2023-03-29T02:41:48;5.40;99.90
29855;DHT22;16733;48.738;9.106;2023-03-29T02:44:21;5.40;99.90
29855;DHT22;16733;48.738;9.106;2023-03-29T02:47:18;5.40;99.90
29855;DHT22;16733;48.738;9.106;2023-03-29T02:49:43;5.40;99.90
29855;DHT22;16733;48.738;9.106;2023-03-29T02:52:13;5.40;99.90
29855;DHT22;16733;48.738;9.106;2023-03-29T02:54:41;5.40;99.90
29855;DHT22;16733;48.738;9.106;2023-03-29T02:57:10;5.40;99.90
29855;DHT22;16733;48.738;9.106;2023-03-29T02:59:36;5.40;99.90
29855;DHT22;16733;48.738;9.106;2023-03-29T03:02:04;5.30;99.90
29855;DHT22;16733;48.738;9.106;2023-03-29T03:04:30;5.30;99.90
29855;DHT22;16733;48.738;9.106;2023-03-29T03:06:56;5.30;99.90
29855;DHT22;16733;48.738;9.106;2023-03-29T03:09:22;5.30;99.90
29855;DHT22;16733;48.738;9.106;2023-03-29T03:11:48;5.30;99.90
29855;DHT22;16733;48.738;9.106;2023-03-29T03:14:13;5.30;99.90
29855;DHT22;16733;48.738;9.106;2023-03-29T03:16:41;5.30;99.90
29855;DHT22;16733;48.738;9.106;2023-03-29T03:19:07;5.30;99.90
29855;DHT22;16733;48.738;9.106;2023-03-29T03:21:35;5.40;99.90
29855;DHT22;16733;48.738;9.106;2023-03-29T03:24:02;5.40;99.90
29855;DHT22;16733;48.738;9.106;2023-03-29T03:26:29;5.40;99.90
29855;DHT22;16733;48.738;9.106;2023-03-29T03:28:55;5.50;99.90
29855;DHT22;16733;48.738;9.106;2023-03-29T03:31:21;5.50;99.90
29855;DHT22;16733;48.738;9.106;2023-03-29T03:33:46;5.60;99.90
29855;DHT22;16733;48.738;9.106;2023-03-29T03:36:13;5.60;99.90
29855;DHT22;16733;48.738;9.106;2023-03-29T03:38:38;5.70;99.90
29855;DHT22;16733;48.738;9.106;2023-03-29T03:41:05;5.80;99.90
29855;DHT22;16733;48.738;9.106;2023-03-29T03:43:31;5.80;99.90
29855;DHT22;16733;48.738;9.106;2023-03-29T03:45:57;5.90;99.90
29855;DHT22;16733;48.738;9.106;2023-03-29T03:48:23;6.00;99.90
29855;DHT22;16733;48.738;9.106;2023-03-29T03:50:51;6.10;99.90
29855;DHT22;16733;48.738;9.106;2023-03-29T03:53:17;6.20;99.90
29855;DHT22;16733;48.738;9.106;2023-03-29T03:55:50;6.30;99.90
29855;DHT22;16733;48.738;9.106;2023-03-29T03:58:17;6.40;99.90
29855;DHT22;16733;48.738;9.106;2023-03-29T04:00:43;6.40;99.90
29855;DHT22;16733;48.738;9.106;2023-03-29T04:03:09;6.50;99.90
29855;DHT22;16733;48.738;9.106;2023-03-29T04:05:43;6.50;99.90
29855;DHT22;16733;48.738;9.106;2023-03-29T04:08:10;6.60;99.90
29855;DHT22;16733;48.738;9.106;2023-03-29T04:10:37;6.60;99.90
29855;DHT22;16733;48.738;9.106;2023-03-29T04:13:02;6.70;99.90
29855;DHT22;16733;48.738;9.106;2023-03-29T04:15:30;6.70;99.90
29855;DHT22;16733;48.738;9.106;2023-03-29T04:17:56;6.70;99.90
29855;DHT22;16733;48.738;9.106;2023-03-29T04:20:23;6.70;99.90
29855;DHT22;16733;48.738;9.106;2023-03-29T04:22:49;6.70;99.90
29855;DHT22;16733;48.738;9.106;2023-03-29T04:25:15;6.70;99.90
29855;DHT22;16733;48.738;9.106;2023-03-29T04:27:42;6.70;99.90
29855;DHT22;16733;48.738;9.106;2023-03-29T04:30:08;6.70;99.90
29855;DHT22;16733;48.738;9.106;2023-03-29T04:32:34;6.70;99.90
29855;DHT22;16733;48.738;9.106;2023-03-29T04:35:00;6.70;99.90
29855;DHT22;16733;48.738;9.106;2023-03-29T04:37:27;6.70;99.90
29855;DHT22;16733;48.738;9.106;2023-03-29T04:39:53;6.70;99.90
29855;DHT22;16733;48.738;9.106;2023-03-29T04:42:19;6.80;99.90
29855;DHT22;16733;48.738;9.106;2023-03-29T04:44:45;6.70;99.90
29855;DHT22;16733;48.738;9.106;2023-03-29T04:47:11;6.80;99.90
29855;DHT22;16733;48.738;9.106;2023-03-29T04:49:40;6.80;99.90
29855;DHT22;16733;48.738;9.106;2023-03-29T04:52:06;6.80;99.90
29855;DHT22;16733;48.738;9.106;2023-03-29T04:54:32;6.90;99.90
29855;DHT22;16733;48.738;9.106;2023-03-29T04:56:58;6.90;99.90
29855;DHT22;16733;48.738;9.106;2023-03-29T04:59:23;6.90;99.90
29855;DHT22;16733;48.738;9.106;2023-03-29T05:01:49;6.90;99.90
29855;DHT22;16733;48.738;9.106;2023-03-29T05:04:14;7.00;99.90
29855;DHT22;16733;48.738;9.106;2023-03-29T05:06:40;7.00;99.90
29855;DHT22;16733;48.738;9.106;2023-03-29T05:09:06;7.00;99.90
29855;DHT22;16733;48.738;9.106;2023-03-29T05:11:33;7.00;99.90
29855;DHT22;16733;48.738;9.106;2023-03-29T05:13:59;7.00;99.90
29855;DHT22;16733;48.738;9.106;2023-03-29T05:16:28;7.00;99.90
29855;DHT22;16733;48.738;9.106;2023-03-29T05:18:55;7.00;99.90
29855;DHT22;16733;48.738;9.106;2023-03-29T05:21:21;7.10;99.90
29855;DHT22;16733;48.738;9.106;2023-03-29T05:23:47;7.10;99.90
29855;DHT22;16733;48.738;9.106;2023-03-29T05:26:13;7.10;99.90
29855;DHT22;16733;48.738;9.106;2023-03-29T05:28:40;7.10;99.90
29855;DHT22;16733;48.738;9.106;2023-03-29T05:31:06;7.20;99.90
29855;DHT22;16733;48.738;9.106;2023-03-29T05:33:33;7.20;99.90
29855;DHT22;16733;48.738;9.106;2023-03-29T05:36:08;7.20;99.90
29855;DHT22;16733;48.738;9.106;2023-03-29T05:38:35;7.30;99.90
29855;DHT22;16733;48.738;9.106;2023-03-29T05:41:01;7.30;99.90
29855;DHT22;16733;48.738;9.106;2023-03-29T05:43:27;7.30;99.90
29855;DHT22;16733;48.738;9.106;2023-03-29T05:45:53;7.40;99.90
29855;DHT22;16733;48.738;9.106;2023-03-29T05:48:22;7.40;99.90
29855;DHT22;16733;48.738;9.106;2023-03-29T05:50:49;7.40;99.90
29855;DHT22;16733;48.738;9.106;2023-03-29T05:53:20;7.40;99.90
29855;DHT22;16733;48.738;9.106;2023-03-29T05:55:46;7.50;99.90
29855;DHT22;16733;48.738;9.106;2023-03-29T05:58:12;7.50;99.90
29855;DHT22;16733;48.738;9.106;2023-03-29T06:00:39;7.60;99.90
29855;DHT22;16733;48.738;9.106;2023-03-29T06:03:06;7.60;99.90
29855;DHT22;16733;48.738;9.106;2023-03-29T06:05:33;7.70;99.90
29855;DHT22;16733;48.738;9.106;2023-03-29T06:08:00;7.80;99.90
29855;DHT22;16733;48.738;9.106;2023-03-29T06:10:26;7.90;99.90
29855;DHT22;16733;48.738;9.106;2023-03-29T06:12:51;7.90;99.90
29855;DHT22;16733;48.738;9.106;2023-03-29T06:15:17;8.00;99.90
29855;DHT22;16733;48.738;9.106;2023-03-29T06:17:44;8.10;99.90
29855;DHT22;16733;48.738;9.106;2023-03-29T06:20:11;8.20;99.90
29855;DHT22;16733;48.738;9.106;2023-03-29T06:22:37;8.30;99.90
29855;DHT22;16733;48.738;9.106;2023-03-29T06:25:05;8.40;99.90
29855;DHT22;16733;48.738;9.106;2023-03-29T06:27:31;8.50;99.90
29855;DHT22;16733;48.738;9.106;2023-03-29T06:29:58;8.60;99.90
29855;DHT22;16733;48.738;9.106;2023-03-29T06:32:24;8.70;99.90
29855;DHT22;16733;48.738;9.106;2023-03-29T06:34:50;8.70;99.90
29855;DHT22;16733;48.738;9.106;2023-03-29T06:37:15;8.80;99.90
29855;DHT22;16733;48.738;9.106;2023-03-29T06:39:41;8.90;99.90
29855;DHT22;16733;48.738;9.106;2023-03-29T06:42:07;9.00;99.90
29855;DHT22;16733;48.738;9.106;2023-03-29T06:44:32;9.10;99.90
29855;DHT22;16733;48.738;9.106;2023-03-29T06:46:58;9.10;99.90
29855;DHT22;16733;48.738;9.106;2023-03-29T06:49:24;9.10;99.90
29855;DHT22;16733;48.738;9.106;2023-03-29T06:51:50;9.20;99.90
29855;DHT22;16733;48.738;9.106;2023-03-29T06:54:17;9.20;99.90
29855;DHT22;16733;48.738;9.106;2023-03-29T06:56:43;9.20;99.90
29855;DHT22;16733;48.738;9.106;2023-03-29T06:59:10;9.20;99.90
29855;DHT22;16733;48.738;9.106;2023-03-29T07:01:36;9.20;99.90
29855;DHT22;16733;48.738;9.106;2023-03-29T07:04:02;9.30;99.90
29855;DHT22;16733;48.738;9.106;2023-03-29T07:06:32;9.30;99.90
29855;DHT22;16733;48.738;9.106;2023-03-29T07:08:58;9.30;99.90
29855;DHT22;16733;48.738;9.106;2023-03-29T07:11:26;9.40;99.90
29855;DHT22;16733;48.738;9.106;2023-03-29T07:13:51;9.40;99.90
29855;DHT22;16733;48.738;9.106;2023-03-29T07:16:17;9.50;99.90
29855;DHT22;16733;48.738;9.106;2023-03-29T07:18:44;9.50;99.90
29855;DHT22;16733;48.738;9.106;2023-03-29T07:21:11;9.50;99.90
29855;DHT22;16733;48.738;9.106;2023-03-29T07:23:38;9.60;99.90
29855;DHT22;16733;48.738;9.106;2023-03-29T07:26:04;9.60;99.90
29855;DHT22;16733;48.738;9.106;2023-03-29T07:28:32;9.70;99.90
29855;DHT22;16733;48.738;9.106;2023-03-29T07:31:07;9.70;99.90
29855;DHT22;16733;48.738;9.106;2023-03-29T07:33:35;9.80;99.90
29855;DHT22;16733;48.738;9.106;2023-03-29T07:36:05;9.90;99.90
29855;DHT22;16733;48.738;9.106;2023-03-29T07:38:31;9.90;99.90
29855;DHT22;16733;48.738;9.106;2023-03-29T07:40:57;10.00;99.90
29855;DHT22;16733;48.738;9.106;2023-03-29T07:43:23;10.10;99.90
29855;DHT22;16733;48.738;9.106;2023-03-29T07:45:49;10.10;99.90
29855;DHT22;16733;48.738;9.106;2023-03-29T07:48:16;10.20;99.90
29855;DHT22;16733;48.738;9.106;2023-03-29T07:50:43;10.30;99.90
29855;DHT22;16733;48.738;9.106;2023-03-29T07:53:09;10.20;99.90
29855;DHT22;16733;48.738;9.106;2023-03-29T07:55:35;10.30;99.90
29855;DHT22;16733;48.738;9.106;2023-03-29T07:58:01;10.30;99.90
29855;DHT22;16733;48.738;9.106;2023-03-29T08:00:27;10.30;99.90
29855;DHT22;16733;48.738;9.106;2023-03-29T08:02:53;10.30;99.90
29855;DHT22;16733;48.738;9.106;2023-03-29T08:05:20;10.30;99.90
29855;DHT22;16733;48.738;9.106;2023-03-29T08:07:49;10.30;99.90
29855;DHT22;16733;48.738;9.106;2023-03-29T08:10:20;10.40;99.90
29855;DHT22;16733;48.738;9.106;2023-03-29T08:12:47;10.40;99.90
29855;DHT22;16733;48.738;9.106;2023-03-29T08:15:14;10.50;99.90
29855;DHT22;16733;48.738;9.106;2023-03-29T08:17:41;10.50;99.90
29855;DHT22;16733;48.738;9.106;2023-03-29T08:20:08;10.60;99.90
29855;DHT22;16733;48.738;9.106;2023-03-29T08:22:37;10.60;99.90
29855;DHT22;16733;48.738;9.106;2023-03-29T08:25:04;10.70;99.90
29855;DHT22;16733;48.738;9.106;2023-03-29T08:27:31;10.70;99.90
29855;DHT22;16733;48.738;9.106;2023-03-29T08:29:57;10.70;99.90
29855;DHT22;16733;48.738;9.106;2023-03-29T08:32:23;10.70;99.90
29855;DHT22;16733;48.738;9.106;2023-03-29T08:34:48;10.80;99.90
29855;DHT22;16733;48.738;9.106;2023-03-29T08:37:14;10.80;99.90
29855;DHT22;16733;48.738;9.106;2023-03-29T08:39:40;10.90;99.90
29855;DHT22;16733;48.738;9.106;2023-03-29T08:50:46;11.00;99.90
29855;DHT22;16733;48.738;9.106;2023-03-29T08:53:18;11.00;99.90
29855;DHT22;16733;48.738;9.106;2023-03-29T08:55:46;11.10;99.90
29855;DHT22;16733;48.738;9.106;2023-03-29T08:58:18;11.10;99.90
29855;DHT22;16733;48.738;9.106;2023-03-29T09:00:50;11.20;99.90
29855;DHT22;16733;48.738;9.106;2023-03-29T09:03:22;11.20;99.90
29855;DHT22;16733;48.738;9.106;2023-03-29T09:05:58;11.20;99.90
29855;DHT22;16733;48.738;9.106;2023-03-29T09:08:24;11.30;99.90
29855;DHT22;16733;48.738;9.106;2023-03-29T09:13:42;11.30;99.90
29855;DHT22;16733;48.738;9.106;2023-03-29T09:19:08;11.50;99.90
29855;DHT22;16733;48.738;9.106;2023-03-29T09:27:19;11.70;99.90
29855;DHT22;16733;48.738;9.106;2023-03-29T09:32:23;11.70;99.90
29855;DHT22;16733;48.738;9.106;2023-03-29T09:37:48;11.90;99.90
29855;DHT22;16733;48.738;9.106;2023-03-29T09:40:29;12.10;99.90
29855;DHT22;16733;48.738;9.106;2023-03-29T09:42:56;12.10;99.90
29855;DHT22;16733;48.738;9.106;2023-03-29T09:45:22;12.20;99.90
29855;DHT22;16733;48.738;9.106;2023-03-29T09:50:22;12.30;99.90
29855;DHT22;16733;48.738;9.106;2023-03-29T09:52:49;12.40;99.90
29855;DHT22;16733;48.738;9.106;2023-03-29T09:55:16;12.40;99.90
29855;DHT22;16733;48.738;9.106;2023-03-29T09:57:42;12.60;99.90
29855;DHT22;16733;48.738;9.106;2023-03-29T10:00:11;12.60;99.90
29855;DHT22;16733;48.738;9.106;2023-03-29T10:02:38;12.70;99.90
29855;DHT22;16733;48.738;9.106;2023-03-29T10:05:05;12.80;99.90
29855;DHT22;16733;48.738;9.106;2023-03-29T10:07:45;12.90;99.90
29855;DHT22;16733;48.738;9.106;2023-03-29T10:10:26;13.10;99.90
29855;DHT22;16733;48.738;9.106;2023-03-29T10:12:58;13.20;99.90
29855;DHT22;16733;48.738;9.106;2023-03-29T10:15:26;13.30;99.90
29855;DHT22;16733;48.738;9.106;2023-03-29T10:18:01;13.40;99.90
29855;DHT22;16733;48.738;9.106;2023-03-29T10:20:28;13.50;99.90
29855;DHT22;16733;48.738;9.106;2023-03-29T10:22:56;13.50;99.90
29855;DHT22;16733;48.738;9.106;2023-03-29T10:25:28;13.50;99.90
29855;DHT22;16733;48.738;9.106;2023-03-29T10:28:16;13.40;99.90
29855;DHT22;16733;48.738;9.106;2023-03-29T10:30:44;13.40;99.90
29855;DHT22;16733;48.738;9.106;2023-03-29T10:33:16;13.50;99.90
29855;DHT22;16733;48.738;9.106;2023-03-29T10:35:43;13.50;99.90
29855;DHT22;16733;48.738;9.106;2023-03-29T10:38:14;13.60;99.90
29855;DHT22;16733;48.738;9.106;2023-03-29T10:40:44;13.80;99.90
29855;DHT22;16733;48.738;9.106;2023-03-29T10:43:27;14.00;99.90
29855;DHT22;16733;48.738;9.106;2023-03-29T10:46:08;14.10;99.90
29855;DHT22;16733;48.738;9.106;2023-03-29T10:48:37;14.10;99.90
29855;DHT22;16733;48.738;9.106;2023-03-29T10:51:04;14.20;99.90
29855;DHT22;16733;48.738;9.106;2023-03-29T10:53:32;14.20;99.90
29855;DHT22;16733;48.738;9.106;2023-03-29T10:56:05;14.30;99.90
29855;DHT22;16733;48.738;9.106;2023-03-29T11:01:14;14.50;99.90
29855;DHT22;16733;48.738;9.106;2023-03-29T11:04:09;14.50;99.90
29855;DHT22;16733;48.738;9.106;2023-03-29T11:12:53;14.60;99.90
29855;DHT22;16733;48.738;9.106;2023-03-29T11:15:48;14.60;99.90
29855;DHT22;16733;48.738;9.106;2023-03-29T11:21:30;14.60;99.90
29855;DHT22;16733;48.738;9.106;2023-03-29T11:29:27;14.80;99.90
29855;DHT22;16733;48.738;9.106;2023-03-29T11:32:06;15.10;99.90
29855;DHT22;16733;48.738;9.106;2023-03-29T11:35:09;15.40;99.90
29855;DHT22;16733;48.738;9.106;2023-03-29T11:43:32;16.10;99.90
29855;DHT22;16733;48.738;9.106;2023-03-29T11:46:15;16.20;99.90
29855;DHT22;16733;48.738;9.106;2023-03-29T11:49:28;16.20;99.90
29855;DHT22;16733;48.738;9.106;2023-03-29T11:51:35;16.30;99.90
29855;DHT22;16733;48.738;9.106;2023-03-29T11:54:14;16.40;99.90
29855;DHT22;16733;48.738;9.106;2023-03-29T11:56:56;16.30;99.90
29855;DHT22;16733;48.738;9.106;2023-03-29T11:59:30;16.30;99.90
29855;DHT22;16733;48.738;9.106;2023-03-29T12:02:25;16.20;99.90
29855;DHT22;16733;48.738;9.106;2023-03-29T12:04:55;16.20;99.90
29855;DHT22;16733;48.738;9.106;2023-03-29T12:07:36;16.20;99.90
29855;DHT22;16733;48.738;9.106;2023-03-29T12:10:26;16.10;99.90
29855;DHT22;16733;48.738;9.106;2023-03-29T12:12:57;16.00;99.90
29855;DHT22;16733;48.738;9.106;2023-03-29T12:15:26;16.00;99.90
29855;DHT22;16733;48.738;9.106;2023-03-29T12:20:59;15.90;99.90
29855;DHT22;16733;48.738;9.106;2023-03-29T12:23:29;15.90;99.90
29855;DHT22;16733;48.738;9.106;2023-03-29T12:26:42;15.90;99.90
29855;DHT22;16733;48.738;9.106;2023-03-29T12:35:26;16.00;99.90
29855;DHT22;16733;48.738;9.106;2023-03-29T12:40:58;16.00;99.90
29855;DHT22;16733;48.738;9.106;2023-03-29T12:43:40;15.90;99.90
29855;DHT22;16733;48.738;9.106;2023-03-29T12:46:26;15.80;99.90
29855;DHT22;16733;48.738;9.106;2023-03-29T12:48:59;15.70;99.90
29855;DHT22;16733;48.738;9.106;2023-03-29T12:51:34;15.70;99.90
29855;DHT22;16733;48.738;9.106;2023-03-29T12:57:01;16.00;99.90
29855;DHT22;16733;48.738;9.106;2023-03-29T12:59:36;16.00;99.90
29855;DHT22;16733;48.738;9.106;2023-03-29T13:04:54;15.80;99.90
29855;DHT22;16733;48.738;9.106;2023-03-29T13:10:02;15.60;99.90
29855;DHT22;16733;48.738;9.106;2023-03-29T13:23:15;15.10;99.90
29855;DHT22;16733;48.738;9.106;2023-03-29T13:28:26;14.30;99.90
29855;DHT22;16733;48.738;9.106;2023-03-29T13:31:03;14.20;99.90
29855;DHT22;16733;48.738;9.106;2023-03-29T13:36:29;14.20;99.90
29855;DHT22;16733;48.738;9.106;2023-03-29T13:39:02;14.40;99.90
29855;DHT22;16733;48.738;9.106;2023-03-29T13:41:48;14.50;99.90
29855;DHT22;16733;48.738;9.106;2023-03-29T13:46:47;14.60;99.90
29855;DHT22;16733;48.738;9.106;2023-03-29T13:49:22;14.70;99.90
29855;DHT22;16733;48.738;9.106;2023-03-29T13:52:03;14.70;99.90
29855;DHT22;16733;48.738;9.106;2023-03-29T13:57:19;14.90;99.90
29855;DHT22;16733;48.738;9.106;2023-03-29T13:59:56;14.90;99.90
29855;DHT22;16733;48.738;9.106;2023-03-29T14:02:29;14.90;99.90
29855;DHT22;16733;48.738;9.106;2023-03-29T14:04:58;14.90;99.90
29855;DHT22;16733;48.738;9.106;2023-03-29T14:07:27;14.80;99.90
29855;DHT22;16733;48.738;9.106;2023-03-29T14:09:55;14.60;99.90
29855;DHT22;16733;48.738;9.106;2023-03-29T14:12:23;14.50;99.90
29855;DHT22;16733;48.738;9.106;2023-03-29T14:14:51;14.50;99.90
29855;DHT22;16733;48.738;9.106;2023-03-29T14:17:19;14.60;99.90
29855;DHT22;16733;48.738;9.106;2023-03-29T14:19:46;14.60;99.90
29855;DHT22;16733;48.738;9.106;2023-03-29T14:22:18;14.70;99.90
29855;DHT22;16733;48.738;9.106;2023-03-29T14:24:46;14.80;99.90
29855;DHT22;16733;48.738;9.106;2023-03-29T14:27:16;14.90;99.90
29855;DHT22;16733;48.738;9.106;2023-03-29T14:29:47;15.00;99.90
29855;DHT22;16733;48.738;9.106;2023-03-29T14:32:16;15.00;99.90
29855;DHT22;16733;48.738;9.106;2023-03-29T14:34:43;15.00;99.90
29855;DHT22;16733;48.738;9.106;2023-03-29T14:37:15;15.00;99.90
29855;DHT22;16733;48.738;9.106;2023-03-29T14:39:41;15.10;99.90
29855;DHT22;16733;48.738;9.106;2023-03-29T14:42:13;15.10;99.90
29855;DHT22;16733;48.738;9.106;2023-03-29T14:44:41;15.10;99.90
29855;DHT22;16733;48.738;9.106;2023-03-29T14:47:14;15.10;99.90
29855;DHT22;16733;48.738;9.106;2023-03-29T14:49:40;15.20;99.90
29855;DHT22;16733;48.738;9.106;2023-03-29T14:52:07;15.30;99.90
29855;DHT22;16733;48.738;9.106;2023-03-29T14:54:33;15.40;99.90
29855;DHT22;16733;48.738;9.106;2023-03-29T14:57:02;15.50;99.90
29855;DHT22;16733;48.738;9.106;2023-03-29T14:59:36;15.50;99.90
29855;DHT22;16733;48.738;9.106;2023-03-29T15:02:02;15.50;99.90
29855;DHT22;16733;48.738;9.106;2023-03-29T15:04:32;15.60;99.90
29855;DHT22;16733;48.738;9.106;2023-03-29T15:06:58;15.60;99.90
29855;DHT22;16733;48.738;9.106;2023-03-29T15:09:30;15.60;99.90
29855;DHT22;16733;48.738;9.106;2023-03-29T15:11:58;15.50;99.90
29855;DHT22;16733;48.738;9.106;2023-03-29T15:14:26;15.60;99.90
29855;DHT22;16733;48.738;9.106;2023-03-29T15:16:57;15.60;99.90
29855;DHT22;16733;48.738;9.106;2023-03-29T15:19:25;15.60;99.90
29855;DHT22;16733;48.738;9.106;2023-03-29T15:21:51;15.70;99.90
29855;DHT22;16733;48.738;9.106;2023-03-29T15:24:28;15.80;99.90
29855;DHT22;16733;48.738;9.106;2023-03-29T15:27:24;16.00;99.90
29855;DHT22;16733;48.738;9.106;2023-03-29T15:29:58;16.30;99.90
29855;DHT22;16733;48.738;9.106;2023-03-29T15:32:33;16.80;99.90
29855;DHT22;16733;48.738;9.106;2023-03-29T15:35:01;17.00;99.90
29855;DHT22;16733;48.738;9.106;2023-03-29T15:37:27;17.00;99.90
29855;DHT22;16733;48.738;9.106;2023-03-29T15:39:52;16.80;99.90
29855;DHT22;16733;48.738;9.106;2023-03-29T15:42:19;16.70;99.90
29855;DHT22;16733;48.738;9.106;2023-03-29T15:44:45;16.60;99.90
29855;DHT22;16733;48.738;9.106;2023-03-29T15:47:11;16.70;99.90
29855;DHT22;16733;48.738;9.106;2023-03-29T15:49:37;16.90;99.90
29855;DHT22;16733;48.738;9.106;2023-03-29T15:52:04;17.20;99.90
29855;DHT22;16733;48.738;9.106;2023-03-29T15:54:29;17.50;99.90
29855;DHT22;16733;48.738;9.106;2023-03-29T15:57:00;17.60;99.90
29855;DHT22;16733;48.738;9.106;2023-03-29T15:59:29;17.40;99.90
29855;DHT22;16733;48.738;9.106;2023-03-29T16:01:54;17.30;99.90
29855;DHT22;16733;48.738;9.106;2023-03-29T16:04:22;17.10;99.90
29855;DHT22;16733;48.738;9.106;2023-03-29T16:06:49;17.00;99.90
29855;DHT22;16733;48.738;9.106;2023-03-29T16:09:17;16.90;99.90
29855;DHT22;16733;48.738;9.106;2023-03-29T16:11:43;16.80;99.90
29855;DHT22;16733;48.738;9.106;2023-03-29T16:16:38;16.80;99.90
29855;DHT22;16733;48.738;9.106;2023-03-29T16:19:03;16.70;99.90
29855;DHT22;16733;48.738;9.106;2023-03-29T16:21:29;16.70;99.90
29855;DHT22;16733;48.738;9.106;2023-03-29T16:23:54;16.70;99.90
29855;DHT22;16733;48.738;9.106;2023-03-29T16:26:20;16.60;99.90
29855;DHT22;16733;48.738;9.106;2023-03-29T16:28:46;16.60;99.90
29855;DHT22;16733;48.738;9.106;2023-03-29T16:31:12;16.60;99.90
29855;DHT22;16733;48.738;9.106;2023-03-29T16:33:39;16.60;99.90
29855;DHT22;16733;48.738;9.106;2023-03-29T16:36:05;16.50;99.90
29855;DHT22;16733;48.738;9.106;2023-03-29T16:38:30;16.50;99.90
29855;DHT22;16733;48.738;9.106;2023-03-29T16:40:58;16.50;99.90
29855;DHT22;16733;48.738;9.106;2023-03-29T16:43:23;16.50;99.90
29855;DHT22;16733;48.738;9.106;2023-03-29T16:45:49;16.40;99.90
29855;DHT22;16733;48.738;9.106;2023-03-29T16:48:17;16.40;99.90
29855;DHT22;16733;48.738;9.106;2023-03-29T16:50:47;16.30;99.90
29855;DHT22;16733;48.738;9.106;2023-03-29T16:53:16;16.30;99.90
29855;DHT22;16733;48.738;9.106;2023-03-29T16:55:45;16.30;99.90
29855;DHT22;16733;48.738;9.106;2023-03-29T16:58:10;16.30;99.90
29855;DHT22;16733;48.738;9.106;2023-03-29T17:00:36;16.30;99.90
29855;DHT22;16733;48.738;9.106;2023-03-29T17:03:03;16.20;99.90
29855;DHT22;16733;48.738;9.106;2023-03-29T17:05:29;16.20;99.90
29855;DHT22;16733;48.738;9.106;2023-03-29T17:07:55;16.20;99.90
29855;DHT22;16733;48.738;9.106;2023-03-29T17:10:21;16.10;99.90
29855;DHT22;16733;48.738;9.106;2023-03-29T17:12:48;16.10;99.90
29855;DHT22;16733;48.738;9.106;2023-03-29T17:15:13;16.00;99.90
29855;DHT22;16733;48.738;9.106;2023-03-29T17:17:39;16.00;99.90
29855;DHT22;16733;48.738;9.106;2023-03-29T17:20:07;15.80;99.90
29855;DHT22;16733;48.738;9.106;2023-03-29T17:22:36;15.60;99.90
29855;DHT22;16733;48.738;9.106;2023-03-29T17:25:02;15.50;99.90
29855;DHT22;16733;48.738;9.106;2023-03-29T17:27:31;15.50;99.90
29855;DHT22;16733;48.738;9.106;2023-03-29T17:29:57;15.40;99.90
29855;DHT22;16733;48.738;9.106;2023-03-29T17:32:22;15.40;99.90
29855;DHT22;16733;48.738;9.106;2023-03-29T17:34:48;15.40;99.90
29855;DHT22;16733;48.738;9.106;2023-03-29T17:37:13;15.40;99.90
29855;DHT22;16733;48.738;9.106;2023-03-29T17:39:39;15.30;99.90
29855;DHT22;16733;48.738;9.106;2023-03-29T17:42:06;15.30;99.90
29855;DHT22;16733;48.738;9.106;2023-03-29T17:44:32;15.20;99.90